sensor_id;sensor_type;location;lat;lon;timestamp;pressure;altitude;pressure_sealevel;temperature
49785;BMP280;35679;38.732;-121.358;2024-01-10T00:01:23;101748.53;;;13.32
49785;BMP280;35679;38.732;-121.358;2024-01-10T00:04:15;101753.81;;;13.32
49785;BMP280;35679;38.732;-121.358;2024-01-10T00:07:05;101747.84;;;13.30
49785;BMP280;35679;38.732;-121.358;2024-01-10T00:09:54;101749.50;;;13.31
49785;BMP280;35679;38.732;-121.358;2024-01-10T00:12:44;101756.63;;;13.31
49785;BMP280;35679;38.732;-121.358;2024-01-10T00:15:33;101758.44;;;13.30
49785;BMP280;35679;38.732;-121.358;2024-01-10T00:18:22;101752.84;;;13.33
49785;BMP280;35679;38.732;-121.358;2024-01-10T00:21:12;101763.59;;;13.32
49785;BMP280;35679;38.732;-121.358;2024-01-10T00:24:01;101768.75;;;13.33
49785;BMP280;35679;38.732;-121.358;2024-01-10T00:26:50;101772.38;;;13.32
49785;BMP280;35679;38.732;-121.358;2024-01-10T00:29:40;101776.84;;;13.32
49785;BMP280;35679;38.732;-121.358;2024-01-10T00:32:30;101766.25;;;13.32
49785;BMP280;35679;38.732;-121.358;2024-01-10T00:35:19;101764.41;;;13.32
49785;BMP280;35679;38.732;-121.358;2024-01-10T00:38:08;101757.28;;;13.33
49785;BMP280;35679;38.732;-121.358;2024-01-10T00:41:05;101744.19;;;13.31
49785;BMP280;35679;38.732;-121.358;2024-01-10T00:43:55;101740.56;;;13.32
49785;BMP280;35679;38.732;-121.358;2024-01-10T00:46:44;101732.63;;;13.32
49785;BMP280;35679;38.732;-121.358;2024-01-10T00:49:33;101737.22;;;13.30
49785;BMP280;35679;38.732;-121.358;2024-01-10T00:52:22;101740.72;;;13.31
49785;BMP280;35679;38.732;-121.358;2024-01-10T00:55:12;101743.38;;;13.31
49785;BMP280;35679;38.732;-121.358;2024-01-10T00:58:01;101758.44;;;13.30
49785;BMP280;35679;38.732;-121.358;2024-01-10T01:00:51;101758.31;;;13.32
49785;BMP280;35679;38.732;-121.358;2024-01-10T01:03:40;101757.44;;;13.31
49785;BMP280;35679;38.732;-121.358;2024-01-10T01:06:30;101771.56;;;13.32
49785;BMP280;35679;38.732;-121.358;2024-01-10T01:09:19;101770.41;;;13.34
49785;BMP280;35679;38.732;-121.358;2024-01-10T01:12:08;101764.41;;;13.32
49785;BMP280;35679;38.732;-121.358;2024-01-10T01:14:57;101767.06;;;13.32
49785;BMP280;35679;38.732;-121.358;2024-01-10T01:17:46;101768.06;;;13.31
49785;BMP280;35679;38.732;-121.358;2024-01-10T01:20:35;101768.91;;;13.32
49785;BMP280;35679;38.732;-121.358;2024-01-10T01:23:24;101774.34;;;13.30
49785;BMP280;35679;38.732;-121.358;2024-01-10T01:26:22;101775.19;;;13.31
49785;BMP280;35679;38.732;-121.358;2024-01-10T01:29:11;101761.09;;;13.30
49785;BMP280;35679;38.732;-121.358;2024-01-10T01:32:00;101763.75;;;13.30
49785;BMP280;35679;38.732;-121.358;2024-01-10T01:34:49;101784.94;;;13.30
49785;BMP280;35679;38.732;-121.358;2024-01-10T01:37:38;101797.22;;;13.31
49785;BMP280;35679;38.732;-121.358;2024-01-10T01:40:28;101807.81;;;13.31
49785;BMP280;35679;38.732;-121.358;2024-01-10T01:43:25;101801.69;;;13.31
49785;BMP280;35679;38.732;-121.358;2024-01-10T01:46:15;101808.66;;;13.32
49785;BMP280;35679;38.732;-121.358;2024-01-10T01:49:04;101811.44;;;13.30
49785;BMP280;35679;38.732;-121.358;2024-01-10T01:51:53;101800.84;;;13.30
49785;BMP280;35679;38.732;-121.358;2024-01-10T01:54:42;101798.19;;;13.30
49785;BMP280;35679;38.732;-121.358;2024-01-10T01:57:31;101795.53;;;13.30
49785;BMP280;35679;38.732;-121.358;2024-01-10T02:00:20;101801.53;;;13.32
49785;BMP280;35679;38.732;-121.358;2024-01-10T02:03:09;101781.47;;;13.30
49785;BMP280;35679;38.732;-121.358;2024-01-10T02:06:02;101781.31;;;13.31
49785;BMP280;35679;38.732;-121.358;2024-01-10T02:08:53;101777.00;;;13.30
49785;BMP280;35679;38.732;-121.358;2024-01-10T02:11:42;101776.19;;;13.30
49785;BMP280;35679;38.732;-121.358;2024-01-10T02:14:32;101783.31;;;13.29
49785;BMP280;35679;38.732;-121.358;2024-01-10T02:17:21;101775.34;;;13.29
49785;BMP280;35679;38.732;-121.358;2024-01-10T02:20:10;101769.03;;;13.30
49785;BMP280;35679;38.732;-121.358;2024-01-10T02:23:00;101774.34;;;13.30
49785;BMP280;35679;38.732;-121.358;2024-01-10T02:25:49;101772.53;;;13.31
49785;BMP280;35679;38.732;-121.358;2024-01-10T02:28:38;101772.72;;;13.29
49785;BMP280;35679;38.732;-121.358;2024-01-10T02:31:30;101772.72;;;13.29
49785;BMP280;35679;38.732;-121.358;2024-01-10T02:34:19;101777.16;;;13.29
49785;BMP280;35679;38.732;-121.358;2024-01-10T02:37:08;101773.34;;;13.31
49785;BMP280;35679;38.732;-121.358;2024-01-10T02:39:57;101769.88;;;13.31
49785;BMP280;35679;38.732;-121.358;2024-01-10T02:42:46;101777.00;;;13.30
49785;BMP280;35679;38.732;-121.358;2024-01-10T02:45:35;101783.97;;;13.31
49785;BMP280;35679;38.732;-121.358;2024-01-10T02:48:24;101796.56;;;13.29
49785;BMP280;35679;38.732;-121.358;2024-01-10T02:51:13;101803.50;;;13.30
49785;BMP280;35679;38.732;-121.358;2024-01-10T02:54:02;101800.84;;;13.30
49785;BMP280;35679;38.732;-121.358;2024-01-10T02:56:51;101796.41;;;13.31
49785;BMP280;35679;38.732;-121.358;2024-01-10T02:59:40;101799.03;;;13.31
49785;BMP280;35679;38.732;-121.358;2024-01-10T03:02:30;101799.03;;;13.31
49785;BMP280;35679;38.732;-121.358;2024-01-10T03:05:19;101803.38;;;13.32
49785;BMP280;35679;38.732;-121.358;2024-01-10T03:08:08;101803.38;;;13.32
49785;BMP280;35679;38.732;-121.358;2024-01-10T03:10:57;101804.19;;;13.32
49785;BMP280;35679;38.732;-121.358;2024-01-10T03:13:47;101812.31;;;13.31
49785;BMP280;35679;38.732;-121.358;2024-01-10T03:16:37;101803.38;;;13.32
49785;BMP280;35679;38.732;-121.358;2024-01-10T03:19:26;101795.53;;;13.30
49785;BMP280;35679;38.732;-121.358;2024-01-10T03:22:16;101793.59;;;13.32
49785;BMP280;35679;38.732;-121.358;2024-01-10T03:25:06;101778.81;;;13.30
49785;BMP280;35679;38.732;-121.358;2024-01-10T03:27:55;101776.19;;;13.30
49785;BMP280;35679;38.732;-121.358;2024-01-10T03:30:44;101763.75;;;13.30
49785;BMP280;35679;38.732;-121.358;2024-01-10T03:33:34;101755.78;;;13.30
49785;BMP280;35679;38.732;-121.358;2024-01-10T03:36:23;101768.22;;;13.30
49785;BMP280;35679;38.732;-121.358;2024-01-10T03:39:17;101770.88;;;13.30
49785;BMP280;35679;38.732;-121.358;2024-01-10T03:42:07;101771.69;;;13.30
49785;BMP280;35679;38.732;-121.358;2024-01-10T03:44:57;101762.09;;;13.29
49785;BMP280;35679;38.732;-121.358;2024-01-10T03:47:47;101774.50;;;13.29
49785;BMP280;35679;38.732;-121.358;2024-01-10T03:50:39;101763.91;;;13.29
49785;BMP280;35679;38.732;-121.358;2024-01-10T03:53:30;101772.03;;;13.27
49785;BMP280;35679;38.732;-121.358;2024-01-10T03:56:19;101766.88;;;13.26
49785;BMP280;35679;38.732;-121.358;2024-01-10T03:59:09;101774.69;;;13.27
49785;BMP280;35679;38.732;-121.358;2024-01-10T04:01:58;101772.72;;;13.29
49785;BMP280;35679;38.732;-121.358;2024-01-10T04:04:49;101773.84;;;13.27
49785;BMP280;35679;38.732;-121.358;2024-01-10T04:07:42;101779.81;;;13.29
49785;BMP280;35679;38.732;-121.358;2024-01-10T04:10:32;101792.25;;;13.28
49785;BMP280;35679;38.732;-121.358;2024-01-10T04:13:21;101786.94;;;13.28
49785;BMP280;35679;38.732;-121.358;2024-01-10T04:16:10;101793.22;;;13.27
49785;BMP280;35679;38.732;-121.358;2024-01-10T04:19:00;101782.94;;;13.24
49785;BMP280;35679;38.732;-121.358;2024-01-10T04:21:49;101777.50;;;13.26
49785;BMP280;35679;38.732;-121.358;2024-01-10T04:24:38;101778.31;;;13.26
49785;BMP280;35679;38.732;-121.358;2024-01-10T04:27:28;101783.78;;;13.25
49785;BMP280;35679;38.732;-121.358;2024-01-10T04:30:17;101767.69;;;13.26
49785;BMP280;35679;38.732;-121.358;2024-01-10T04:33:07;101781.94;;;13.25
49785;BMP280;35679;38.732;-121.358;2024-01-10T04:35:56;101779.28;;;13.25
49785;BMP280;35679;38.732;-121.358;2024-01-10T04:38:46;101781.94;;;13.25
49785;BMP280;35679;38.732;-121.358;2024-01-10T04:41:35;101794.38;;;13.25
49785;BMP280;35679;38.732;-121.358;2024-01-10T04:44:25;101783.09;;;13.23
49785;BMP280;35679;38.732;-121.358;2024-01-10T04:47:15;101789.88;;;13.25
49785;BMP280;35679;38.732;-121.358;2024-01-10T04:50:04;101784.75;;;13.24
49785;BMP280;35679;38.732;-121.358;2024-01-10T04:52:56;101792.53;;;13.25
49785;BMP280;35679;38.732;-121.358;2024-01-10T04:55:46;101790.91;;;13.24
49785;BMP280;35679;38.732;-121.358;2024-01-10T04:58:38;101794.38;;;13.25
49785;BMP280;35679;38.732;-121.358;2024-01-10T05:01:27;101795.34;;;13.24
49785;BMP280;35679;38.732;-121.358;2024-01-10T05:04:17;101780.44;;;13.23
49785;BMP280;35679;38.732;-121.358;2024-01-10T05:07:06;101788.56;;;13.21
49785;BMP280;35679;38.732;-121.358;2024-01-10T05:09:55;101785.59;;;13.24
49785;BMP280;35679;38.732;-121.358;2024-01-10T05:12:44;101787.56;;;13.22
49785;BMP280;35679;38.732;-121.358;2024-01-10T05:15:34;101782.44;;;13.21
49785;BMP280;35679;38.732;-121.358;2024-01-10T05:18:23;101786.75;;;13.22
49785;BMP280;35679;38.732;-121.358;2024-01-10T05:21:12;101776.97;;;13.22
49785;BMP280;35679;38.732;-121.358;2024-01-10T05:24:02;101778.81;;;13.22
49785;BMP280;35679;38.732;-121.358;2024-01-10T05:26:52;101777.78;;;13.23
49785;BMP280;35679;38.732;-121.358;2024-01-10T05:29:41;101785.75;;;13.23
49785;BMP280;35679;38.732;-121.358;2024-01-10T05:32:31;101786.88;;;13.20
49785;BMP280;35679;38.732;-121.358;2024-01-10T05:35:20;101787.56;;;13.22
49785;BMP280;35679;38.732;-121.358;2024-01-10T05:38:10;101778.94;;;13.20
49785;BMP280;35679;38.732;-121.358;2024-01-10T05:41:00;101770.16;;;13.20
49785;BMP280;35679;38.732;-121.358;2024-01-10T05:43:50;101769.19;;;13.21
49785;BMP280;35679;38.732;-121.358;2024-01-10T05:46:39;101765.56;;;13.22
49785;BMP280;35679;38.732;-121.358;2024-01-10T05:49:29;101768.50;;;13.19
49785;BMP280;35679;38.732;-121.358;2024-01-10T05:52:19;101762.38;;;13.18
49785;BMP280;35679;38.732;-121.358;2024-01-10T05:55:10;101765.03;;;13.18
49785;BMP280;35679;38.732;-121.358;2024-01-10T05:58:00;101777.31;;;13.19
49785;BMP280;35679;38.732;-121.358;2024-01-10T06:00:50;101775.63;;;13.18
49785;BMP280;35679;38.732;-121.358;2024-01-10T06:03:39;101781.75;;;13.19
49785;BMP280;35679;38.732;-121.358;2024-01-10T06:06:29;101774.78;;;13.18
49785;BMP280;35679;38.732;-121.358;2024-01-10T06:09:18;101776.63;;;13.17
49785;BMP280;35679;38.732;-121.358;2024-01-10T06:12:10;101772.97;;;13.18
49785;BMP280;35679;38.732;-121.358;2024-01-10T06:15:00;101784.56;;;13.17
49785;BMP280;35679;38.732;-121.358;2024-01-10T06:17:49;101774.78;;;13.18
49785;BMP280;35679;38.732;-121.358;2024-01-10T06:20:39;101773.97;;;13.17
49785;BMP280;35679;38.732;-121.358;2024-01-10T06:23:28;101784.56;;;13.17
49785;BMP280;35679;38.732;-121.358;2024-01-10T06:26:17;101800.47;;;13.17
49785;BMP280;35679;38.732;-121.358;2024-01-10T06:29:07;101807.44;;;13.18
49785;BMP280;35679;38.732;-121.358;2024-01-10T06:31:56;101802.13;;;13.18
49785;BMP280;35679;38.732;-121.358;2024-01-10T06:34:46;101810.25;;;13.17
49785;BMP280;35679;38.732;-121.358;2024-01-10T06:37:35;101818.19;;;13.17
49785;BMP280;35679;38.732;-121.358;2024-01-10T06:40:25;101810.25;;;13.17
49785;BMP280;35679;38.732;-121.358;2024-01-10T06:43:14;101815.56;;;13.17
49785;BMP280;35679;38.732;-121.358;2024-01-10T06:46:03;101830.59;;;13.16
49785;BMP280;35679;38.732;-121.358;2024-01-10T06:48:53;101833.09;;;13.18
49785;BMP280;35679;38.732;-121.358;2024-01-10T06:51:42;101832.09;;;13.19
49785;BMP280;35679;38.732;-121.358;2024-01-10T06:54:32;101818.03;;;13.18
49785;BMP280;35679;38.732;-121.358;2024-01-10T06:57:21;101809.41;;;13.16
49785;BMP280;35679;38.732;-121.358;2024-01-10T07:00:11;101805.25;;;13.14
49785;BMP280;35679;38.732;-121.358;2024-01-10T07:03:03;101796.16;;;13.16
49785;BMP280;35679;38.732;-121.358;2024-01-10T07:05:52;101802.44;;;13.15
49785;BMP280;35679;38.732;-121.358;2024-01-10T07:08:41;101795.47;;;13.14
49785;BMP280;35679;38.732;-121.358;2024-01-10T07:11:34;101796.31;;;13.15
49785;BMP280;35679;38.732;-121.358;2024-01-10T07:14:23;101801.78;;;13.13
49785;BMP280;35679;38.732;-121.358;2024-01-10T07:17:12;101798.28;;;13.13
49785;BMP280;35679;38.732;-121.358;2024-01-10T07:20:01;101780.59;;;13.13
49785;BMP280;35679;38.732;-121.358;2024-01-10T07:22:51;101776.25;;;13.12
49785;BMP280;35679;38.732;-121.358;2024-01-10T07:25:41;101783.22;;;13.13
49785;BMP280;35679;38.732;-121.358;2024-01-10T07:28:30;101785.88;;;13.13
49785;BMP280;35679;38.732;-121.358;2024-01-10T07:31:21;101783.53;;;13.10
49785;BMP280;35679;38.732;-121.358;2024-01-10T07:34:10;101775.41;;;13.12
49785;BMP280;35679;38.732;-121.358;2024-01-10T07:37:00;101783.38;;;13.12
49785;BMP280;35679;38.732;-121.358;2024-01-10T07:39:49;101787.84;;;13.11
49785;BMP280;35679;38.732;-121.358;2024-01-10T07:42:39;101798.44;;;13.11
49785;BMP280;35679;38.732;-121.358;2024-01-10T07:45:28;101804.56;;;13.12
49785;BMP280;35679;38.732;-121.358;2024-01-10T07:48:17;101808.06;;;13.12
49785;BMP280;35679;38.732;-121.358;2024-01-10T07:51:06;101810.88;;;13.11
49785;BMP280;35679;38.732;-121.358;2024-01-10T07:53:55;101807.38;;;13.10
49785;BMP280;35679;38.732;-121.358;2024-01-10T07:56:44;101814.50;;;13.10
49785;BMP280;35679;38.732;-121.358;2024-01-10T07:59:33;101819.81;;;13.10
49785;BMP280;35679;38.732;-121.358;2024-01-10T08:02:23;101821.59;;;13.09
49785;BMP280;35679;38.732;-121.358;2024-01-10T08:05:13;101821.47;;;13.11
49785;BMP280;35679;38.732;-121.358;2024-01-10T08:08:02;101828.56;;;13.10
49785;BMP280;35679;38.732;-121.358;2024-01-10T08:10:52;101820.63;;;13.10
49785;BMP280;35679;38.732;-121.358;2024-01-10T08:13:41;101817.31;;;13.09
49785;BMP280;35679;38.732;-121.358;2024-01-10T08:16:30;101817.31;;;13.09
49785;BMP280;35679;38.732;-121.358;2024-01-10T08:19:20;101819.63;;;13.11
49785;BMP280;35679;38.732;-121.358;2024-01-10T08:22:09;101819.97;;;13.09
49785;BMP280;35679;38.732;-121.358;2024-01-10T08:24:58;101819.97;;;13.09
49785;BMP280;35679;38.732;-121.358;2024-01-10T08:27:48;101818.94;;;13.09
49785;BMP280;35679;38.732;-121.358;2024-01-10T08:30:37;101823.44;;;13.09
49785;BMP280;35679;38.732;-121.358;2024-01-10T08:33:26;101815.50;;;13.09
49785;BMP280;35679;38.732;-121.358;2024-01-10T08:36:15;101813.66;;;13.09
49785;BMP280;35679;38.732;-121.358;2024-01-10T08:39:04;101802.22;;;13.09
49785;BMP280;35679;38.732;-121.358;2024-01-10T08:41:55;101812.84;;;13.09
49785;BMP280;35679;38.732;-121.358;2024-01-10T08:44:44;101814.78;;;13.07
49785;BMP280;35679;38.732;-121.358;2024-01-10T08:47:33;101801.41;;;13.09
49785;BMP280;35679;38.732;-121.358;2024-01-10T08:50:23;101793.59;;;13.07
49785;BMP280;35679;38.732;-121.358;2024-01-10T08:53:12;101790.81;;;13.09
49785;BMP280;35679;38.732;-121.358;2024-01-10T08:56:02;101783.84;;;13.08
49785;BMP280;35679;38.732;-121.358;2024-01-10T08:58:52;101780.22;;;13.09
49785;BMP280;35679;38.732;-121.358;2024-01-10T09:01:41;101763.63;;;13.07
49785;BMP280;35679;38.732;-121.358;2024-01-10T09:04:31;101763.47;;;13.08
49785;BMP280;35679;38.732;-121.358;2024-01-10T09:07:23;101768.13;;;13.06
49785;BMP280;35679;38.732;-121.358;2024-01-10T09:10:12;101772.56;;;13.06
49785;BMP280;35679;38.732;-121.358;2024-01-10T09:13:02;101768.94;;;13.07
49785;BMP280;35679;38.732;-121.358;2024-01-10T09:15:51;101773.25;;;13.08
49785;BMP280;35679;38.732;-121.358;2024-01-10T09:18:40;101770.78;;;13.06
49785;BMP280;35679;38.732;-121.358;2024-01-10T09:21:29;101765.47;;;13.06
49785;BMP280;35679;38.732;-121.358;2024-01-10T09:24:18;101756.66;;;13.06
49785;BMP280;35679;38.732;-121.358;2024-01-10T09:27:14;101754.03;;;13.06
49785;BMP280;35679;38.732;-121.358;2024-01-10T09:30:04;101745.25;;;13.05
49785;BMP280;35679;38.732;-121.358;2024-01-10T09:32:59;101730.34;;;13.04
49785;BMP280;35679;38.732;-121.358;2024-01-10T09:35:49;101723.91;;;13.07
49785;BMP280;35679;38.732;-121.358;2024-01-10T09:38:38;101730.00;;;13.07
49785;BMP280;35679;38.732;-121.358;2024-01-10T09:41:27;101730.16;;;13.06
49785;BMP280;35679;38.732;-121.358;2024-01-10T09:44:17;101729.19;;;13.07
49785;BMP280;35679;38.732;-121.358;2024-01-10T09:47:07;101725.72;;;13.06
49785;BMP280;35679;38.732;-121.358;2024-01-10T09:49:58;101729.34;;;13.05
49785;BMP280;35679;38.732;-121.358;2024-01-10T09:52:51;101733.69;;;13.06
49785;BMP280;35679;38.732;-121.358;2024-01-10T09:55:41;101738.97;;;13.06
49785;BMP280;35679;38.732;-121.358;2024-01-10T09:58:31;101735.47;;;13.06
49785;BMP280;35679;38.732;-121.358;2024-01-10T10:01:22;101736.47;;;13.05
49785;BMP280;35679;38.732;-121.358;2024-01-10T10:04:12;101733.00;;;13.04
49785;BMP280;35679;38.732;-121.358;2024-01-10T10:07:01;101733.81;;;13.05
49785;BMP280;35679;38.732;-121.358;2024-01-10T10:09:51;101733.97;;;13.03
49785;BMP280;35679;38.732;-121.358;2024-01-10T10:12:45;101733.16;;;13.03
49785;BMP280;35679;38.732;-121.358;2024-01-10T10:15:34;101730.50;;;13.03
49785;BMP280;35679;38.732;-121.358;2024-01-10T10:18:23;101732.31;;;13.02
49785;BMP280;35679;38.732;-121.358;2024-01-10T10:21:13;101734.94;;;13.02
49785;BMP280;35679;38.732;-121.358;2024-01-10T10:24:04;101742.25;;;13.00
49785;BMP280;35679;38.732;-121.358;2024-01-10T10:26:53;101737.59;;;13.02
49785;BMP280;35679;38.732;-121.358;2024-01-10T10:29:47;101731.50;;;13.02
49785;BMP280;35679;38.732;-121.358;2024-01-10T10:32:36;101734.13;;;13.02
49785;BMP280;35679;38.732;-121.358;2024-01-10T10:35:25;101739.59;;;13.00
49785;BMP280;35679;38.732;-121.358;2024-01-10T10:38:23;101740.41;;;13.01
49785;BMP280;35679;38.732;-121.358;2024-01-10T10:41:13;101732.63;;;12.99
49785;BMP280;35679;38.732;-121.358;2024-01-10T10:44:02;101734.31;;;13.00
49785;BMP280;35679;38.732;-121.358;2024-01-10T10:46:53;101720.19;;;13.00
49785;BMP280;35679;38.732;-121.358;2024-01-10T10:49:54;101721.22;;;12.99
49785;BMP280;35679;38.732;-121.358;2024-01-10T10:52:45;101712.41;;;12.98
49785;BMP280;35679;38.732;-121.358;2024-01-10T10:55:37;101710.75;;;12.97
49785;BMP280;35679;38.732;-121.358;2024-01-10T10:58:26;101707.13;;;12.98
49785;BMP280;35679;38.732;-121.358;2024-01-10T11:01:16;101702.81;;;12.97
49785;BMP280;35679;38.732;-121.358;2024-01-10T11:04:05;101708.28;;;12.96
49785;BMP280;35679;38.732;-121.358;2024-01-10T11:06:55;101708.28;;;12.96
49785;BMP280;35679;38.732;-121.358;2024-01-10T11:09:44;101704.81;;;12.95
49785;BMP280;35679;38.732;-121.358;2024-01-10T11:24:40;101666.34;;;12.91
49785;BMP280;35679;38.732;-121.358;2024-01-10T11:27:30;101668.19;;;12.91
49785;BMP280;35679;38.732;-121.358;2024-01-10T11:30:35;101675.97;;;12.92
49785;BMP280;35679;38.732;-121.358;2024-01-10T11:33:33;101676.94;;;12.91
49785;BMP280;35679;38.732;-121.358;2024-01-10T11:36:22;101659.41;;;12.90
49785;BMP280;35679;38.732;-121.358;2024-01-10T11:39:15;101652.28;;;12.91
49785;BMP280;35679;38.732;-121.358;2024-01-10T11:42:04;101643.53;;;12.90
49785;BMP280;35679;38.732;-121.358;2024-01-10T11:44:53;101659.41;;;12.90
49785;BMP280;35679;38.732;-121.358;2024-01-10T11:47:42;101658.56;;;12.90
49785;BMP280;35679;38.732;-121.358;2024-01-10T11:50:31;101650.63;;;12.90
49785;BMP280;35679;38.732;-121.358;2024-01-10T11:56:37;101637.38;;;12.90
49785;BMP280;35679;38.732;-121.358;2024-01-10T11:59:29;101623.50;;;12.88
49785;BMP280;35679;38.732;-121.358;2024-01-10T12:02:19;101614.53;;;12.89
49785;BMP280;35679;38.732;-121.358;2024-01-10T12:05:09;101621.97;;;12.85
49785;BMP280;35679;38.732;-121.358;2024-01-10T12:07:59;101614.00;;;12.85
49785;BMP280;35679;38.732;-121.358;2024-01-10T12:10:48;101602.56;;;12.85
49785;BMP280;35679;38.732;-121.358;2024-01-10T12:13:37;101596.28;;;12.86
49785;BMP280;35679;38.732;-121.358;2024-01-10T12:16:26;101593.50;;;12.87
49785;BMP280;35679;38.732;-121.358;2024-01-10T12:19:15;101583.03;;;12.86
49785;BMP280;35679;38.732;-121.358;2024-01-10T12:22:04;101599.91;;;12.85
49785;BMP280;35679;38.732;-121.358;2024-01-10T12:24:55;101600.09;;;12.83
49785;BMP280;35679;38.732;-121.358;2024-01-10T12:27:44;101594.09;;;12.81
49785;BMP280;35679;38.732;-121.358;2024-01-10T12:30:33;101583.38;;;12.83
49785;BMP280;35679;38.732;-121.358;2024-01-10T12:33:22;101582.53;;;12.82
49785;BMP280;35679;38.732;-121.358;2024-01-10T12:36:12;101578.09;;;12.83
49785;BMP280;35679;38.732;-121.358;2024-01-10T12:39:01;101578.09;;;12.83
49785;BMP280;35679;38.732;-121.358;2024-01-10T12:41:51;101586.84;;;12.83
49785;BMP280;35679;38.732;-121.358;2024-01-10T12:44:43;101585.19;;;12.82
49785;BMP280;35679;38.732;-121.358;2024-01-10T12:47:32;101589.66;;;12.82
49785;BMP280;35679;38.732;-121.358;2024-01-10T12:50:23;101589.66;;;12.82
49785;BMP280;35679;38.732;-121.358;2024-01-10T12:53:16;101593.13;;;12.82
49785;BMP280;35679;38.732;-121.358;2024-01-10T12:56:05;101589.66;;;12.82
49785;BMP280;35679;38.732;-121.358;2024-01-10T12:58:55;101595.78;;;12.82
49785;BMP280;35679;38.732;-121.358;2024-01-10T13:01:44;101588.00;;;12.81
49785;BMP280;35679;38.732;-121.358;2024-01-10T13:04:33;101589.81;;;12.80
49785;BMP280;35679;38.732;-121.358;2024-01-10T13:07:22;101578.38;;;12.80
49785;BMP280;35679;38.732;-121.358;2024-01-10T13:10:12;101562.31;;;12.81
49785;BMP280;35679;38.732;-121.358;2024-01-10T13:13:01;101555.41;;;12.80
49785;BMP280;35679;38.732;-121.358;2024-01-10T13:15:51;101556.38;;;12.79
49785;BMP280;35679;38.732;-121.358;2024-01-10T13:18:40;101565.16;;;12.80
49785;BMP280;35679;38.732;-121.358;2024-01-10T13:21:30;101573.94;;;12.80
49785;BMP280;35679;38.732;-121.358;2024-01-10T13:24:19;101570.44;;;12.80
49785;BMP280;35679;38.732;-121.358;2024-01-10T13:27:08;101574.06;;;12.79
49785;BMP280;35679;38.732;-121.358;2024-01-10T13:29:59;101566.97;;;12.79
49785;BMP280;35679;38.732;-121.358;2024-01-10T13:32:48;101567.78;;;12.80
49785;BMP280;35679;38.732;-121.358;2024-01-10T13:35:37;101552.88;;;12.79
49785;BMP280;35679;38.732;-121.358;2024-01-10T13:38:26;101543.97;;;12.80
49785;BMP280;35679;38.732;-121.358;2024-01-10T13:41:16;101541.66;;;12.77
49785;BMP280;35679;38.732;-121.358;2024-01-10T13:44:05;101545.78;;;12.79
49785;BMP280;35679;38.732;-121.358;2024-01-10T13:46:54;101559.19;;;12.78
49785;BMP280;35679;38.732;-121.358;2024-01-10T13:49:45;101564.50;;;12.78
49785;BMP280;35679;38.732;-121.358;2024-01-10T13:52:34;101566.13;;;12.79
49785;BMP280;35679;38.732;-121.358;2024-01-10T13:55:23;101535.19;;;12.79
49785;BMP280;35679;38.732;-121.358;2024-01-10T13:58:13;101535.19;;;12.79
49785;BMP280;35679;38.732;-121.358;2024-01-10T14:01:02;101522.13;;;12.78
49785;BMP280;35679;38.732;-121.358;2024-01-10T14:03:51;101522.13;;;12.78
49785;BMP280;35679;38.732;-121.358;2024-01-10T14:06:40;101532.84;;;12.76
49785;BMP280;35679;38.732;-121.358;2024-01-10T14:09:32;101536.34;;;12.77
49785;BMP280;35679;38.732;-121.358;2024-01-10T14:12:23;101539.97;;;12.76
49785;BMP280;35679;38.732;-121.358;2024-01-10T14:15:12;101536.34;;;12.77
49785;BMP280;35679;38.732;-121.358;2024-01-10T14:18:02;101538.31;;;12.75
49785;BMP280;35679;38.732;-121.358;2024-01-10T14:20:51;101533.88;;;12.75
49785;BMP280;35679;38.732;-121.358;2024-01-10T14:23:41;101534.69;;;12.76
49785;BMP280;35679;38.732;-121.358;2024-01-10T14:26:30;101520.63;;;12.75
49785;BMP280;35679;38.732;-121.358;2024-01-10T14:29:19;101528.41;;;12.77
49785;BMP280;35679;38.732;-121.358;2024-01-10T14:32:10;101525.25;;;12.73
49785;BMP280;35679;38.732;-121.358;2024-01-10T14:35:04;101530.22;;;12.76
49785;BMP280;35679;38.732;-121.358;2024-01-10T14:37:53;101533.88;;;12.75
49785;BMP280;35679;38.732;-121.358;2024-01-10T14:40:42;101540.16;;;12.74
49785;BMP280;35679;38.732;-121.358;2024-01-10T14:43:32;101526.91;;;12.74
49785;BMP280;35679;38.732;-121.358;2024-01-10T14:46:21;101521.78;;;12.73
49785;BMP280;35679;38.732;-121.358;2024-01-10T14:49:10;101519.94;;;12.73
49785;BMP280;35679;38.732;-121.358;2024-01-10T14:51:59;101517.13;;;12.75
49785;BMP280;35679;38.732;-121.358;2024-01-10T14:54:48;101510.19;;;12.74
49785;BMP280;35679;38.732;-121.358;2024-01-10T14:57:37;101498.75;;;12.73
49785;BMP280;35679;38.732;-121.358;2024-01-10T15:00:26;101496.28;;;12.72
49785;BMP280;35679;38.732;-121.358;2024-01-10T15:03:15;101485.00;;;12.70
49785;BMP280;35679;38.732;-121.358;2024-01-10T15:06:12;101479.72;;;12.70
49785;BMP280;35679;38.732;-121.358;2024-01-10T15:09:01;101478.72;;;12.71
49785;BMP280;35679;38.732;-121.358;2024-01-10T15:11:51;101476.09;;;12.71
49785;BMP280;35679;38.732;-121.358;2024-01-10T15:14:42;101471.94;;;12.68
49785;BMP280;35679;38.732;-121.358;2024-01-10T15:17:31;101464.81;;;12.69
49785;BMP280;35679;38.732;-121.358;2024-01-10T15:20:20;101460.50;;;12.68
49785;BMP280;35679;38.732;-121.358;2024-01-10T15:23:10;101457.03;;;12.67
49785;BMP280;35679;38.732;-121.358;2024-01-10T15:25:59;101465.00;;;12.67
49785;BMP280;35679;38.732;-121.358;2024-01-10T15:28:49;101464.00;;;12.68
49785;BMP280;35679;38.732;-121.358;2024-01-10T15:31:39;101471.78;;;12.70
49785;BMP280;35679;38.732;-121.358;2024-01-10T15:34:29;101473.75;;;12.68
49785;BMP280;35679;38.732;-121.358;2024-01-10T15:37:18;101474.75;;;12.67
49785;BMP280;35679;38.732;-121.358;2024-01-10T15:40:07;101471.28;;;12.66